sensor_id;sensor_type;location;lat;lon;timestamp;P1;durP1;ratioP1;P2;durP2;ratioP2
77384;SDS011;66443;49.122;8.346;2024-03-22T00:00:03;8.23;;;6.73;;
77384;SDS011;66443;49.122;8.346;2024-03-22T00:02:29;6.63;;;6.00;;
77384;SDS011;66443;49.122;8.346;2024-03-22T00:04:54;9.77;;;6.87;;
77384;SDS011;66443;49.122;8.346;2024-03-22T00:07:19;8.03;;;7.30;;
77384;SDS011;66443;49.122;8.346;2024-03-22T00:09:44;9.20;;;8.30;;
77384;SDS011;66443;49.122;8.346;2024-03-22T00:12:09;15.80;;;13.73;;
77384;SDS011;66443;49.122;8.346;2024-03-22T00:14:35;16.47;;;12.77;;
77384;SDS011;66443;49.122;8.346;2024-03-22T00:17:00;15.07;;;13.47;;
77384;SDS011;66443;49.122;8.346;2024-03-22T00:19:25;19.40;;;14.67;;
77384;SDS011;66443;49.122;8.346;2024-03-22T00:21:50;14.60;;;13.10;;
77384;SDS011;66443;49.122;8.346;2024-03-22T00:24:16;13.57;;;10.17;;
77384;SDS011;66443;49.122;8.346;2024-03-22T00:26:41;10.80;;;9.57;;
77384;SDS011;66443;49.122;8.346;2024-03-22T00:29:06;10.13;;;8.40;;
77384;SDS011;66443;49.122;8.346;2024-03-22T00:31:31;8.07;;;7.27;;
77384;SDS011;66443;49.122;8.346;2024-03-22T00:33:56;9.23;;;8.27;;
77384;SDS011;66443;49.122;8.346;2024-03-22T00:36:22;13.03;;;11.37;;
77384;SDS011;66443;49.122;8.346;2024-03-22T00:38:47;12.73;;;11.40;;
77384;SDS011;66443;49.122;8.346;2024-03-22T00:41:12;13.07;;;11.27;;
77384;SDS011;66443;49.122;8.346;2024-03-22T00:43:37;11.93;;;10.50;;
77384;SDS011;66443;49.122;8.346;2024-03-22T00:46:02;12.00;;;10.30;;
77384;SDS011;66443;49.122;8.346;2024-03-22T00:48:28;11.70;;;10.33;;
77384;SDS011;66443;49.122;8.346;2024-03-22T00:50:53;10.50;;;9.03;;
77384;SDS011;66443;49.122;8.346;2024-03-22T00:53:18;11.00;;;10.03;;
77384;SDS011;66443;49.122;8.346;2024-03-22T00:55:44;11.67;;;10.50;;
77384;SDS011;66443;49.122;8.346;2024-03-22T00:58:09;10.97;;;9.23;;
77384;SDS011;66443;49.122;8.346;2024-03-22T01:00:34;12.13;;;9.43;;
77384;SDS011;66443;49.122;8.346;2024-03-22T01:03:01;10.20;;;9.20;;
77384;SDS011;66443;49.122;8.346;2024-03-22T01:05:26;8.73;;;7.93;;
77384;SDS011;66443;49.122;8.346;2024-03-22T01:07:52;11.57;;;8.27;;
77384;SDS011;66443;49.122;8.346;2024-03-22T01:10:17;8.47;;;7.27;;
77384;SDS011;66443;49.122;8.346;2024-03-22T01:12:43;10.53;;;7.10;;
77384;SDS011;66443;49.122;8.346;2024-03-22T01:15:09;8.57;;;7.67;;
77384;SDS011;66443;49.122;8.346;2024-03-22T01:17:34;9.67;;;7.90;;
77384;SDS011;66443;49.122;8.346;2024-03-22T01:19:59;8.33;;;7.53;;
77384;SDS011;66443;49.122;8.346;2024-03-22T01:22:24;11.57;;;7.80;;
77384;SDS011;66443;49.122;8.346;2024-03-22T01:24:50;9.97;;;8.97;;
77384;SDS011;66443;49.122;8.346;2024-03-22T01:27:15;9.30;;;8.30;;
77384;SDS011;66443;49.122;8.346;2024-03-22T01:29:40;13.13;;;9.33;;
77384;SDS011;66443;49.122;8.346;2024-03-22T01:32:08;11.67;;;9.33;;
77384;SDS011;66443;49.122;8.346;2024-03-22T01:34:33;16.03;;;9.97;;
77384;SDS011;66443;49.122;8.346;2024-03-22T01:37:00;13.90;;;10.07;;
77384;SDS011;66443;49.122;8.346;2024-03-22T01:39:25;9.87;;;8.97;;
77384;SDS011;66443;49.122;8.346;2024-03-22T01:41:50;14.07;;;10.57;;
77384;SDS011;66443;49.122;8.346;2024-03-22T01:44:16;11.13;;;9.90;;
77384;SDS011;66443;49.122;8.346;2024-03-22T01:46:41;12.17;;;9.63;;
77384;SDS011;66443;49.122;8.346;2024-03-22T01:49:08;14.50;;;9.90;;
77384;SDS011;66443;49.122;8.346;2024-03-22T01:51:34;14.87;;;9.63;;
77384;SDS011;66443;49.122;8.346;2024-03-22T01:54:01;11.20;;;9.17;;
77384;SDS011;66443;49.122;8.346;2024-03-22T01:56:26;18.50;;;10.30;;
77384;SDS011;66443;49.122;8.346;2024-03-22T01:58:51;10.43;;;8.80;;
77384;SDS011;66443;49.122;8.346;2024-03-22T02:01:17;10.00;;;8.97;;
77384;SDS011;66443;49.122;8.346;2024-03-22T02:03:42;11.73;;;9.67;;
77384;SDS011;66443;49.122;8.346;2024-03-22T02:06:07;14.10;;;10.67;;
77384;SDS011;66443;49.122;8.346;2024-03-22T02:08:34;11.83;;;9.90;;
77384;SDS011;66443;49.122;8.346;2024-03-22T02:11:00;9.97;;;8.70;;
77384;SDS011;66443;49.122;8.346;2024-03-22T02:13:25;9.80;;;8.07;;
77384;SDS011;66443;49.122;8.346;2024-03-22T02:15:50;17.00;;;9.27;;
77384;SDS011;66443;49.122;8.346;2024-03-22T02:18:15;13.73;;;9.97;;
77384;SDS011;66443;49.122;8.346;2024-03-22T02:20:40;11.00;;;8.47;;
77384;SDS011;66443;49.122;8.346;2024-03-22T02:23:05;8.97;;;7.73;;
77384;SDS011;66443;49.122;8.346;2024-03-22T02:25:31;8.20;;;7.40;;
77384;SDS011;66443;49.122;8.346;2024-03-22T02:27:56;7.80;;;6.80;;
77384;SDS011;66443;49.122;8.346;2024-03-22T02:30:21;12.77;;;9.03;;
77384;SDS011;66443;49.122;8.346;2024-03-22T02:32:46;12.47;;;9.00;;
77384;SDS011;66443;49.122;8.346;2024-03-22T02:35:11;11.80;;;8.53;;
77384;SDS011;66443;49.122;8.346;2024-03-22T02:37:36;11.77;;;10.10;;
77384;SDS011;66443;49.122;8.346;2024-03-22T02:40:02;11.67;;;10.43;;
77384;SDS011;66443;49.122;8.346;2024-03-22T02:42:27;11.33;;;9.30;;
77384;SDS011;66443;49.122;8.346;2024-03-22T02:44:52;10.40;;;8.67;;
77384;SDS011;66443;49.122;8.346;2024-03-22T02:47:17;12.13;;;9.43;;
77384;SDS011;66443;49.122;8.346;2024-03-22T02:49:42;10.93;;;8.70;;
77384;SDS011;66443;49.122;8.346;2024-03-22T02:52:08;11.10;;;9.33;;
77384;SDS011;66443;49.122;8.346;2024-03-22T02:54:33;12.00;;;9.37;;
77384;SDS011;66443;49.122;8.346;2024-03-22T02:56:58;12.53;;;10.30;;
77384;SDS011;66443;49.122;8.346;2024-03-22T02:59:26;11.67;;;10.33;;
77384;SDS011;66443;49.122;8.346;2024-03-22T03:01:52;12.67;;;9.73;;
77384;SDS011;66443;49.122;8.346;2024-03-22T03:04:17;12.63;;;10.70;;
77384;SDS011;66443;49.122;8.346;2024-03-22T03:06:42;9.97;;;8.97;;
77384;SDS011;66443;49.122;8.346;2024-03-22T03:09:07;11.00;;;9.90;;
77384;SDS011;66443;49.122;8.346;2024-03-22T03:11:33;12.20;;;10.90;;
77384;SDS011;66443;49.122;8.346;2024-03-22T03:13:58;11.73;;;10.27;;
77384;SDS011;66443;49.122;8.346;2024-03-22T03:16:23;11.93;;;10.73;;
77384;SDS011;66443;49.122;8.346;2024-03-22T03:18:48;13.47;;;10.80;;
77384;SDS011;66443;49.122;8.346;2024-03-22T03:21:14;14.93;;;11.07;;
77384;SDS011;66443;49.122;8.346;2024-03-22T03:23:39;13.93;;;12.10;;
77384;SDS011;66443;49.122;8.346;2024-03-22T03:26:04;13.57;;;11.07;;
77384;SDS011;66443;49.122;8.346;2024-03-22T03:28:29;12.23;;;10.43;;
77384;SDS011;66443;49.122;8.346;2024-03-22T03:30:54;11.97;;;9.20;;
77384;SDS011;66443;49.122;8.346;2024-03-22T03:33:19;11.70;;;10.50;;
77384;SDS011;66443;49.122;8.346;2024-03-22T03:35:45;12.20;;;11.03;;
77384;SDS011;66443;49.122;8.346;2024-03-22T03:38:10;13.00;;;10.63;;
77384;SDS011;66443;49.122;8.346;2024-03-22T03:40:35;13.73;;;11.43;;
77384;SDS011;66443;49.122;8.346;2024-03-22T03:43:01;12.60;;;11.40;;
77384;SDS011;66443;49.122;8.346;2024-03-22T03:45:26;13.20;;;11.17;;
77384;SDS011;66443;49.122;8.346;2024-03-22T03:47:51;15.87;;;12.00;;
77384;SDS011;66443;49.122;8.346;2024-03-22T03:50:16;13.37;;;11.63;;
77384;SDS011;66443;49.122;8.346;2024-03-22T03:52:41;16.13;;;11.93;;
77384;SDS011;66443;49.122;8.346;2024-03-22T03:55:06;16.80;;;12.83;;
77384;SDS011;66443;49.122;8.346;2024-03-22T03:57:32;15.70;;;11.57;;
77384;SDS011;66443;49.122;8.346;2024-03-22T03:59:57;13.10;;;11.70;;
77384;SDS011;66443;49.122;8.346;2024-03-22T04:02:22;12.30;;;11.07;;
77384;SDS011;66443;49.122;8.346;2024-03-22T04:04:47;12.47;;;10.90;;
77384;SDS011;66443;49.122;8.346;2024-03-22T04:07:12;15.23;;;12.57;;
77384;SDS011;66443;49.122;8.346;2024-03-22T04:09:38;13.53;;;12.07;;
77384;SDS011;66443;49.122;8.346;2024-03-22T04:12:03;15.20;;;11.67;;
77384;SDS011;66443;49.122;8.346;2024-03-22T04:14:28;14.53;;;11.03;;
77384;SDS011;66443;49.122;8.346;2024-03-22T04:16:53;12.87;;;11.43;;
77384;SDS011;66443;49.122;8.346;2024-03-22T04:19:19;12.30;;;11.20;;
77384;SDS011;66443;49.122;8.346;2024-03-22T04:21:45;13.17;;;11.87;;
77384;SDS011;66443;49.122;8.346;2024-03-22T04:24:10;15.63;;;12.13;;
77384;SDS011;66443;49.122;8.346;2024-03-22T04:26:35;13.93;;;11.20;;
77384;SDS011;66443;49.122;8.346;2024-03-22T04:29:00;16.43;;;13.17;;
77384;SDS011;66443;49.122;8.346;2024-03-22T04:31:25;14.90;;;11.97;;
77384;SDS011;66443;49.122;8.346;2024-03-22T04:33:50;12.33;;;11.07;;
77384;SDS011;66443;49.122;8.346;2024-03-22T04:36:16;12.60;;;11.30;;
77384;SDS011;66443;49.122;8.346;2024-03-22T04:38:41;13.00;;;11.57;;
77384;SDS011;66443;49.122;8.346;2024-03-22T04:41:06;13.20;;;10.77;;
77384;SDS011;66443;49.122;8.346;2024-03-22T04:43:31;12.63;;;11.30;;
77384;SDS011;66443;49.122;8.346;2024-03-22T04:45:57;12.03;;;10.83;;
77384;SDS011;66443;49.122;8.346;2024-03-22T04:48:22;11.70;;;10.60;;
77384;SDS011;66443;49.122;8.346;2024-03-22T04:50:48;11.87;;;10.43;;
77384;SDS011;66443;49.122;8.346;2024-03-22T04:53:15;12.67;;;11.17;;
77384;SDS011;66443;49.122;8.346;2024-03-22T04:55:40;13.77;;;10.37;;
77384;SDS011;66443;49.122;8.346;2024-03-22T04:58:10;14.53;;;11.67;;
77384;SDS011;66443;49.122;8.346;2024-03-22T05:00:35;12.47;;;10.77;;
77384;SDS011;66443;49.122;8.346;2024-03-22T05:03:00;13.80;;;11.77;;
77384;SDS011;66443;49.122;8.346;2024-03-22T05:05:25;17.47;;;12.17;;
77384;SDS011;66443;49.122;8.346;2024-03-22T05:07:51;12.93;;;11.60;;
77384;SDS011;66443;49.122;8.346;2024-03-22T05:10:16;14.20;;;12.70;;
77384;SDS011;66443;49.122;8.346;2024-03-22T05:12:41;19.23;;;12.53;;
77384;SDS011;66443;49.122;8.346;2024-03-22T05:15:07;15.00;;;12.70;;
77384;SDS011;66443;49.122;8.346;2024-03-22T05:17:32;14.37;;;12.13;;
77384;SDS011;66443;49.122;8.346;2024-03-22T05:19:58;21.90;;;12.53;;
77384;SDS011;66443;49.122;8.346;2024-03-22T05:22:23;14.13;;;12.10;;
77384;SDS011;66443;49.122;8.346;2024-03-22T05:24:48;17.33;;;12.63;;
77384;SDS011;66443;49.122;8.346;2024-03-22T05:27:14;17.17;;;13.07;;
77384;SDS011;66443;49.122;8.346;2024-03-22T05:29:39;13.60;;;12.23;;
77384;SDS011;66443;49.122;8.346;2024-03-22T05:32:04;15.77;;;13.10;;
77384;SDS011;66443;49.122;8.346;2024-03-22T05:34:29;17.00;;;13.53;;
77384;SDS011;66443;49.122;8.346;2024-03-22T05:36:55;14.13;;;12.67;;
77384;SDS011;66443;49.122;8.346;2024-03-22T05:39:20;13.33;;;11.83;;
77384;SDS011;66443;49.122;8.346;2024-03-22T05:41:45;18.27;;;13.03;;
77384;SDS011;66443;49.122;8.346;2024-03-22T05:44:11;13.83;;;12.30;;
77384;SDS011;66443;49.122;8.346;2024-03-22T05:46:36;15.07;;;12.13;;
77384;SDS011;66443;49.122;8.346;2024-03-22T05:49:01;13.87;;;12.47;;
77384;SDS011;66443;49.122;8.346;2024-03-22T05:51:26;14.10;;;12.17;;
77384;SDS011;66443;49.122;8.346;2024-03-22T05:53:52;13.07;;;11.77;;
77384;SDS011;66443;49.122;8.346;2024-03-22T05:56:17;13.37;;;11.97;;
77384;SDS011;66443;49.122;8.346;2024-03-22T05:58:42;13.37;;;12.07;;
77384;SDS011;66443;49.122;8.346;2024-03-22T06:01:07;13.30;;;11.60;;
77384;SDS011;66443;49.122;8.346;2024-03-22T06:03:32;14.90;;;13.13;;
77384;SDS011;66443;49.122;8.346;2024-03-22T06:05:58;14.63;;;13.13;;
77384;SDS011;66443;49.122;8.346;2024-03-22T06:08:25;15.73;;;13.40;;
77384;SDS011;66443;49.122;8.346;2024-03-22T06:10:50;16.03;;;14.23;;
77384;SDS011;66443;49.122;8.346;2024-03-22T06:13:16;15.57;;;13.23;;
77384;SDS011;66443;49.122;8.346;2024-03-22T06:15:42;15.10;;;13.17;;
77384;SDS011;66443;49.122;8.346;2024-03-22T06:18:09;19.80;;;13.77;;
77384;SDS011;66443;49.122;8.346;2024-03-22T06:20:34;15.50;;;13.90;;
77384;SDS011;66443;49.122;8.346;2024-03-22T06:23:00;17.57;;;14.87;;
77384;SDS011;66443;49.122;8.346;2024-03-22T06:25:25;16.50;;;13.97;;
77384;SDS011;66443;49.122;8.346;2024-03-22T06:27:50;18.03;;;14.67;;
77384;SDS011;66443;49.122;8.346;2024-03-22T06:30:15;17.80;;;13.97;;
77384;SDS011;66443;49.122;8.346;2024-03-22T06:32:41;22.63;;;14.70;;
77384;SDS011;66443;49.122;8.346;2024-03-22T06:35:06;16.13;;;14.43;;
77384;SDS011;66443;49.122;8.346;2024-03-22T06:37:31;15.50;;;13.80;;
77384;SDS011;66443;49.122;8.346;2024-03-22T06:39:56;15.67;;;14.17;;
77384;SDS011;66443;49.122;8.346;2024-03-22T06:42:23;15.77;;;14.10;;
77384;SDS011;66443;49.122;8.346;2024-03-22T06:44:48;15.33;;;13.83;;
77384;SDS011;66443;49.122;8.346;2024-03-22T06:47:13;15.07;;;13.03;;
77384;SDS011;66443;49.122;8.346;2024-03-22T06:49:39;18.27;;;12.93;;
77384;SDS011;66443;49.122;8.346;2024-03-22T06:52:04;17.03;;;14.23;;
77384;SDS011;66443;49.122;8.346;2024-03-22T06:54:29;14.30;;;13.00;;
77384;SDS011;66443;49.122;8.346;2024-03-22T06:56:54;16.10;;;12.57;;
77384;SDS011;66443;49.122;8.346;2024-03-22T06:59:19;14.17;;;12.67;;
77384;SDS011;66443;49.122;8.346;2024-03-22T07:01:44;13.87;;;12.60;;
77384;SDS011;66443;49.122;8.346;2024-03-22T07:04:10;14.90;;;13.50;;
77384;SDS011;66443;49.122;8.346;2024-03-22T07:06:35;15.37;;;13.73;;
77384;SDS011;66443;49.122;8.346;2024-03-22T07:09:00;15.97;;;14.37;;
77384;SDS011;66443;49.122;8.346;2024-03-22T07:11:25;17.53;;;12.87;;
77384;SDS011;66443;49.122;8.346;2024-03-22T07:13:51;15.53;;;12.83;;
77384;SDS011;66443;49.122;8.346;2024-03-22T07:16:16;16.10;;;14.47;;
77384;SDS011;66443;49.122;8.346;2024-03-22T07:18:41;14.83;;;13.60;;
77384;SDS011;66443;49.122;8.346;2024-03-22T07:21:07;19.33;;;14.40;;
77384;SDS011;66443;49.122;8.346;2024-03-22T07:23:32;16.17;;;13.90;;
77384;SDS011;66443;49.122;8.346;2024-03-22T07:25:57;17.43;;;15.37;;
77384;SDS011;66443;49.122;8.346;2024-03-22T07:28:22;14.67;;;13.30;;
77384;SDS011;66443;49.122;8.346;2024-03-22T07:30:48;14.53;;;13.13;;
77384;SDS011;66443;49.122;8.346;2024-03-22T07:33:13;15.10;;;13.63;;
77384;SDS011;66443;49.122;8.346;2024-03-22T07:35:42;16.00;;;12.80;;
77384;SDS011;66443;49.122;8.346;2024-03-22T07:38:08;13.87;;;12.60;;
77384;SDS011;66443;49.122;8.346;2024-03-22T07:40:33;13.97;;;12.57;;
77384;SDS011;66443;49.122;8.346;2024-03-22T07:42:58;15.33;;;13.83;;
77384;SDS011;66443;49.122;8.346;2024-03-22T07:45:24;16.13;;;14.17;;
77384;SDS011;66443;49.122;8.346;2024-03-22T07:47:49;13.23;;;12.13;;
77384;SDS011;66443;49.122;8.346;2024-03-22T07:50:14;11.93;;;10.83;;
77384;SDS011;66443;49.122;8.346;2024-03-22T07:52:40;12.77;;;11.50;;
77384;SDS011;66443;49.122;8.346;2024-03-22T07:55:05;12.47;;;11.27;;
77384;SDS011;66443;49.122;8.346;2024-03-22T07:57:31;12.60;;;11.30;;
77384;SDS011;66443;49.122;8.346;2024-03-22T08:00:02;12.57;;;11.27;;
77384;SDS011;66443;49.122;8.346;2024-03-22T08:02:27;12.63;;;9.97;;
77384;SDS011;66443;49.122;8.346;2024-03-22T08:04:53;10.83;;;9.73;;
77384;SDS011;66443;49.122;8.346;2024-03-22T08:07:18;12.40;;;9.93;;
77384;SDS011;66443;49.122;8.346;2024-03-22T08:09:43;17.10;;;10.43;;
77384;SDS011;66443;49.122;8.346;2024-03-22T08:12:08;10.90;;;9.80;;
77384;SDS011;66443;49.122;8.346;2024-03-22T08:14:33;13.80;;;10.97;;
77384;SDS011;66443;49.122;8.346;2024-03-22T08:16:59;11.77;;;10.10;;
77384;SDS011;66443;49.122;8.346;2024-03-22T08:19:24;10.53;;;9.53;;
77384;SDS011;66443;49.122;8.346;2024-03-22T08:21:49;11.93;;;10.83;;
77384;SDS011;66443;49.122;8.346;2024-03-22T08:24:15;10.50;;;9.50;;
77384;SDS011;66443;49.122;8.346;2024-03-22T08:26:40;10.27;;;9.27;;
77384;SDS011;66443;49.122;8.346;2024-03-22T08:29:10;9.50;;;8.70;;
77384;SDS011;66443;49.122;8.346;2024-03-22T08:31:35;9.43;;;8.70;;
77384;SDS011;66443;49.122;8.346;2024-03-22T08:34:00;10.50;;;9.47;;
77384;SDS011;66443;49.122;8.346;2024-03-22T08:36:31;9.17;;;8.27;;
77384;SDS011;66443;49.122;8.346;2024-03-22T08:38:56;9.53;;;8.60;;
77384;SDS011;66443;49.122;8.346;2024-03-22T08:41:21;9.63;;;8.83;;
77384;SDS011;66443;49.122;8.346;2024-03-22T08:43:46;9.70;;;8.77;;
77384;SDS011;66443;49.122;8.346;2024-03-22T08:46:12;8.77;;;7.80;;
77384;SDS011;66443;49.122;8.346;2024-03-22T08:48:37;9.20;;;8.40;;
77384;SDS011;66443;49.122;8.346;2024-03-22T08:51:02;9.00;;;8.20;;
77384;SDS011;66443;49.122;8.346;2024-03-22T08:53:27;8.77;;;7.97;;
77384;SDS011;66443;49.122;8.346;2024-03-22T08:55:53;9.90;;;8.23;;
77384;SDS011;66443;49.122;8.346;2024-03-22T08:58:18;8.23;;;7.37;;
77384;SDS011;66443;49.122;8.346;2024-03-22T09:00:43;9.30;;;7.50;;
77384;SDS011;66443;49.122;8.346;2024-03-22T09:03:09;8.07;;;7.27;;
77384;SDS011;66443;49.122;8.346;2024-03-22T09:05:34;8.37;;;7.50;;
77384;SDS011;66443;49.122;8.346;2024-03-22T09:07:59;7.30;;;6.70;;
77384;SDS011;66443;49.122;8.346;2024-03-22T09:10:25;8.70;;;7.90;;
77384;SDS011;66443;49.122;8.346;2024-03-22T09:12:51;7.90;;;7.30;;
77384;SDS011;66443;49.122;8.346;2024-03-22T09:15:17;8.50;;;7.70;;
77384;SDS011;66443;49.122;8.346;2024-03-22T09:17:42;8.60;;;7.80;;
77384;SDS011;66443;49.122;8.346;2024-03-22T09:20:07;7.70;;;7.10;;
77384;SDS011;66443;49.122;8.346;2024-03-22T09:22:33;8.27;;;7.43;;
77384;SDS011;66443;49.122;8.346;2024-03-22T09:24:58;7.77;;;7.03;;
77384;SDS011;66443;49.122;8.346;2024-03-22T09:27:24;7.77;;;6.90;;
77384;SDS011;66443;49.122;8.346;2024-03-22T09:29:49;7.30;;;6.77;;
77384;SDS011;66443;49.122;8.346;2024-03-22T09:32:14;8.60;;;7.67;;
77384;SDS011;66443;49.122;8.346;2024-03-22T09:34:39;8.40;;;7.50;;
77384;SDS011;66443;49.122;8.346;2024-03-22T09:37:05;8.33;;;7.60;;
77384;SDS011;66443;49.122;8.346;2024-03-22T09:39:30;6.93;;;6.33;;
77384;SDS011;66443;49.122;8.346;2024-03-22T09:41:57;7.43;;;6.27;;
77384;SDS011;66443;49.122;8.346;2024-03-22T09:44:22;7.17;;;6.50;;
77384;SDS011;66443;49.122;8.346;2024-03-22T09:46:48;7.60;;;6.10;;
77384;SDS011;66443;49.122;8.346;2024-03-22T09:49:15;6.67;;;5.97;;
77384;SDS011;66443;49.122;8.346;2024-03-22T09:51:41;8.17;;;7.47;;
77384;SDS011;66443;49.122;8.346;2024-03-22T09:54:06;7.37;;;6.70;;
77384;SDS011;66443;49.122;8.346;2024-03-22T09:56:31;6.67;;;6.07;;
77384;SDS011;66443;49.122;8.346;2024-03-22T09:58:57;7.83;;;7.03;;
77384;SDS011;66443;49.122;8.346;2024-03-22T10:01:23;7.20;;;6.60;;
77384;SDS011;66443;49.122;8.346;2024-03-22T10:03:48;6.87;;;6.17;;
77384;SDS011;66443;49.122;8.346;2024-03-22T10:06:14;7.33;;;6.73;;
77384;SDS011;66443;49.122;8.346;2024-03-22T10:08:39;10.57;;;6.47;;
77384;SDS011;66443;49.122;8.346;2024-03-22T10:11:04;7.93;;;7.13;;
77384;SDS011;66443;49.122;8.346;2024-03-22T10:13:29;6.57;;;5.97;;
77384;SDS011;66443;49.122;8.346;2024-03-22T10:15:55;8.80;;;6.37;;
77384;SDS011;66443;49.122;8.346;2024-03-22T10:18:21;8.67;;;6.23;;
77384;SDS011;66443;49.122;8.346;2024-03-22T10:20:47;6.60;;;6.00;;
77384;SDS011;66443;49.122;8.346;2024-03-22T10:23:12;7.47;;;6.57;;
77384;SDS011;66443;49.122;8.346;2024-03-22T10:25:39;6.90;;;6.33;;
77384;SDS011;66443;49.122;8.346;2024-03-22T10:28:04;6.43;;;6.03;;
77384;SDS011;66443;49.122;8.346;2024-03-22T10:30:30;7.73;;;6.27;;
77384;SDS011;66443;49.122;8.346;2024-03-22T10:32:56;7.97;;;5.87;;
77384;SDS011;66443;49.122;8.346;2024-03-22T10:35:21;6.77;;;6.10;;
77384;SDS011;66443;49.122;8.346;2024-03-22T10:37:46;7.33;;;5.87;;
77384;SDS011;66443;49.122;8.346;2024-03-22T10:40:12;6.07;;;5.57;;
77384;SDS011;66443;49.122;8.346;2024-03-22T10:42:39;7.13;;;6.20;;
77384;SDS011;66443;49.122;8.346;2024-03-22T10:45:05;6.27;;;5.70;;
77384;SDS011;66443;49.122;8.346;2024-03-22T10:47:32;12.20;;;5.73;;
77384;SDS011;66443;49.122;8.346;2024-03-22T10:49:59;6.40;;;5.80;;
77384;SDS011;66443;49.122;8.346;2024-03-22T10:52:26;5.70;;;5.17;;
77384;SDS011;66443;49.122;8.346;2024-03-22T10:54:51;8.33;;;4.73;;
77384;SDS011;66443;49.122;8.346;2024-03-22T10:57:17;5.20;;;4.77;;
77384;SDS011;66443;49.122;8.346;2024-03-22T10:59:42;5.37;;;4.87;;
77384;SDS011;66443;49.122;8.346;2024-03-22T11:02:10;5.60;;;5.10;;
77384;SDS011;66443;49.122;8.346;2024-03-22T11:04:35;5.90;;;5.33;;
77384;SDS011;66443;49.122;8.346;2024-03-22T11:07:00;11.83;;;5.43;;
77384;SDS011;66443;49.122;8.346;2024-03-22T11:09:27;8.50;;;6.00;;
77384;SDS011;66443;49.122;8.346;2024-03-22T11:11:53;5.80;;;5.30;;
77384;SDS011;66443;49.122;8.346;2024-03-22T11:14:18;5.53;;;5.03;;
77384;SDS011;66443;49.122;8.346;2024-03-22T11:16:45;5.27;;;4.77;;
77384;SDS011;66443;49.122;8.346;2024-03-22T11:19:10;4.97;;;4.47;;
77384;SDS011;66443;49.122;8.346;2024-03-22T11:21:35;4.43;;;4.07;;
77384;SDS011;66443;49.122;8.346;2024-03-22T11:24:01;4.70;;;4.30;;
77384;SDS011;66443;49.122;8.346;2024-03-22T11:26:26;5.47;;;4.70;;
77384;SDS011;66443;49.122;8.346;2024-03-22T11:28:52;4.17;;;3.80;;
77384;SDS011;66443;49.122;8.346;2024-03-22T11:31:17;4.40;;;4.10;;
77384;SDS011;66443;49.122;8.346;2024-03-22T11:33:43;4.10;;;3.70;;
77384;SDS011;66443;49.122;8.346;2024-03-22T11:36:09;4.70;;;4.10;;
77384;SDS011;66443;49.122;8.346;2024-03-22T11:38:34;5.60;;;3.77;;
77384;SDS011;66443;49.122;8.346;2024-03-22T11:40:59;5.97;;;4.40;;
77384;SDS011;66443;49.122;8.346;2024-03-22T11:43:27;4.53;;;4.13;;
77384;SDS011;66443;49.122;8.346;2024-03-22T11:45:53;4.77;;;4.20;;
77384;SDS011;66443;49.122;8.346;2024-03-22T11:48:18;4.20;;;3.90;;
77384;SDS011;66443;49.122;8.346;2024-03-22T11:50:45;4.67;;;4.10;;
77384;SDS011;66443;49.122;8.346;2024-03-22T11:53:10;4.30;;;4.00;;
77384;SDS011;66443;49.122;8.346;2024-03-22T11:55:35;3.30;;;2.93;;
77384;SDS011;66443;49.122;8.346;2024-03-22T11:58:01;2.70;;;2.33;;
77384;SDS011;66443;49.122;8.346;2024-03-22T12:00:26;2.30;;;2.20;;
77384;SDS011;66443;49.122;8.346;2024-03-22T12:02:52;2.57;;;2.13;;
77384;SDS011;66443;49.122;8.346;2024-03-22T12:05:18;2.20;;;2.00;;
77384;SDS011;66443;49.122;8.346;2024-03-22T12:07:44;1.60;;;1.50;;
77384;SDS011;66443;49.122;8.346;2024-03-22T12:10:09;2.03;;;1.87;;
77384;SDS011;66443;49.122;8.346;2024-03-22T12:12:37;2.93;;;1.97;;
77384;SDS011;66443;49.122;8.346;2024-03-22T12:15:03;2.63;;;2.23;;
77384;SDS011;66443;49.122;8.346;2024-03-22T12:17:28;3.10;;;2.23;;
77384;SDS011;66443;49.122;8.346;2024-03-22T12:19:56;2.30;;;2.10;;
77384;SDS011;66443;49.122;8.346;2024-03-22T12:22:24;4.53;;;2.30;;
77384;SDS011;66443;49.122;8.346;2024-03-22T12:24:50;3.27;;;2.30;;
77384;SDS011;66443;49.122;8.346;2024-03-22T12:27:15;3.30;;;2.33;;
77384;SDS011;66443;49.122;8.346;2024-03-22T12:29:41;3.33;;;2.50;;
77384;SDS011;66443;49.122;8.346;2024-03-22T12:32:06;2.70;;;2.50;;
77384;SDS011;66443;49.122;8.346;2024-03-22T12:34:32;4.47;;;2.53;;
77384;SDS011;66443;49.122;8.346;2024-03-22T12:36:58;3.87;;;2.70;;
77384;SDS011;66443;49.122;8.346;2024-03-22T12:39:24;4.43;;;2.90;;
77384;SDS011;66443;49.122;8.346;2024-03-22T12:41:49;4.23;;;2.70;;
77384;SDS011;66443;49.122;8.346;2024-03-22T12:44:14;3.80;;;2.93;;
77384;SDS011;66443;49.122;8.346;2024-03-22T12:46:39;3.67;;;3.00;;
77384;SDS011;66443;49.122;8.346;2024-03-22T12:49:07;4.07;;;3.17;;
77384;SDS011;66443;49.122;8.346;2024-03-22T12:51:33;9.10;;;3.30;;
77384;SDS011;66443;49.122;8.346;2024-03-22T12:53:58;3.50;;;3.10;;
77384;SDS011;66443;49.122;8.346;2024-03-22T12:56:23;3.80;;;3.43;;
77384;SDS011;66443;49.122;8.346;2024-03-22T12:58:48;4.78;;;3.60;;
77384;SDS011;66443;49.122;8.346;2024-03-22T13:01:14;4.88;;;3.92;;
77384;SDS011;66443;49.122;8.346;2024-03-22T13:03:39;4.13;;;3.58;;
77384;SDS011;66443;49.122;8.346;2024-03-22T13:06:05;3.53;;;3.23;;
77384;SDS011;66443;49.122;8.346;2024-03-22T13:08:31;4.60;;;3.90;;
77384;SDS011;66443;49.122;8.346;2024-03-22T13:10:56;4.17;;;3.77;;
77384;SDS011;66443;49.122;8.346;2024-03-22T13:13:21;5.47;;;4.00;;
77384;SDS011;66443;49.122;8.346;2024-03-22T13:15:46;3.63;;;3.33;;
77384;SDS011;66443;49.122;8.346;2024-03-22T13:18:12;3.70;;;3.40;;
77384;SDS011;66443;49.122;8.346;2024-03-22T13:20:37;4.53;;;3.47;;
77384;SDS011;66443;49.122;8.346;2024-03-22T13:23:04;5.70;;;3.10;;
77384;SDS011;66443;49.122;8.346;2024-03-22T13:25:29;3.33;;;2.90;;
77384;SDS011;66443;49.122;8.346;2024-03-22T13:27:55;2.57;;;2.37;;
77384;SDS011;66443;49.122;8.346;2024-03-22T13:30:20;2.90;;;2.70;;
77384;SDS011;66443;49.122;8.346;2024-03-22T13:32:45;5.60;;;2.90;;
77384;SDS011;66443;49.122;8.346;2024-03-22T13:35:10;3.07;;;2.77;;
77384;SDS011;66443;49.122;8.346;2024-03-22T13:37:36;3.10;;;2.83;;
77384;SDS011;66443;49.122;8.346;2024-03-22T13:40:01;2.70;;;2.50;;
77384;SDS011;66443;49.122;8.346;2024-03-22T13:42:27;6.70;;;2.77;;
77384;SDS011;66443;49.122;8.346;2024-03-22T13:44:52;3.97;;;2.93;;
77384;SDS011;66443;49.122;8.346;2024-03-22T13:47:18;4.63;;;2.80;;
77384;SDS011;66443;49.122;8.346;2024-03-22T13:49:43;3.77;;;3.40;;
77384;SDS011;66443;49.122;8.346;2024-03-22T13:52:08;3.57;;;3.27;;
77384;SDS011;66443;49.122;8.346;2024-03-22T13:54:34;4.17;;;3.67;;
77384;SDS011;66443;49.122;8.346;2024-03-22T13:56:59;5.03;;;4.07;;
77384;SDS011;66443;49.122;8.346;2024-03-22T13:59:25;3.23;;;2.90;;
77384;SDS011;66443;49.122;8.346;2024-03-22T14:01:50;6.87;;;3.27;;
77384;SDS011;66443;49.122;8.346;2024-03-22T14:04:15;5.63;;;2.67;;
77384;SDS011;66443;49.122;8.346;2024-03-22T14:06:41;3.00;;;2.80;;
77384;SDS011;66443;49.122;8.346;2024-03-22T14:09:09;3.50;;;3.20;;
77384;SDS011;66443;49.122;8.346;2024-03-22T14:11:35;3.38;;;3.08;;
77384;SDS011;66443;49.122;8.346;2024-03-22T14:14:00;4.03;;;3.67;;
77384;SDS011;66443;49.122;8.346;2024-03-22T14:16:25;3.35;;;3.15;;
77384;SDS011;66443;49.122;8.346;2024-03-22T14:18:51;20.92;;;3.88;;
77384;SDS011;66443;49.122;8.346;2024-03-22T14:21:17;4.03;;;2.70;;
77384;SDS011;66443;49.122;8.346;2024-03-22T14:23:47;3.47;;;3.23;;